Map

Track Data

SID SEASON NUMBER BASIN SUBBASIN NAME ISO_TIME NATURE LAT LON WMO_WIND WMO_PRES WMO_AGENCY TRACK_TYPE DIST2LAND LANDFALL IFLAG USA_AGENCY USA_ATCF_ID USA_LAT USA_LON USA_RECORD USA_STATUS USA_WIND USA_PRES USA_SSHS USA_R34_NE USA_R34_SE USA_R34_SW USA_R34_NW USA_R50_NE USA_R50_SE USA_R50_SW USA_R50_NW USA_R64_NE USA_R64_SE USA_R64_SW USA_R64_NW USA_POCI USA_ROCI USA_RMW USA_EYE TOKYO_LAT TOKYO_LON TOKYO_GRADE TOKYO_WIND TOKYO_PRES TOKYO_R50_DIR TOKYO_R50_LONG TOKYO_R50_SHORT TOKYO_R30_DIR TOKYO_R30_LONG TOKYO_R30_SHORT TOKYO_LAND CMA_LAT CMA_LON CMA_CAT CMA_WIND CMA_PRES HKO_LAT HKO_LON HKO_CAT HKO_WIND HKO_PRES NEWDELHI_LAT NEWDELHI_LON NEWDELHI_GRADE NEWDELHI_WIND NEWDELHI_PRES NEWDELHI_CI NEWDELHI_DP NEWDELHI_POCI REUNION_LAT REUNION_LON REUNION_TYPE REUNION_WIND REUNION_PRES REUNION_TNUM REUNION_CI REUNION_RMW REUNION_R34_NE REUNION_R34_SE REUNION_R34_SW REUNION_R34_NW REUNION_R50_NE REUNION_R50_SE REUNION_R50_SW REUNION_R50_NW REUNION_R64_NE REUNION_R64_SE REUNION_R64_SW REUNION_R64_NW BOM_LAT BOM_LON BOM_TYPE BOM_WIND BOM_PRES BOM_TNUM BOM_CI BOM_RMW BOM_R34_NE BOM_R34_SE BOM_R34_SW BOM_R34_NW BOM_R50_NE BOM_R50_SE BOM_R50_SW BOM_R50_NW BOM_R64_NE BOM_R64_SE BOM_R64_SW BOM_R64_NW BOM_ROCI BOM_POCI BOM_EYE BOM_POS_METHOD BOM_PRES_METHOD NADI_LAT NADI_LON NADI_CAT NADI_WIND NADI_PRES WELLINGTON_LAT WELLINGTON_LON WELLINGTON_WIND WELLINGTON_PRES DS824_LAT DS824_LON DS824_STAGE DS824_WIND DS824_PRES TD9636_LAT TD9636_LON TD9636_STAGE TD9636_WIND TD9636_PRES TD9635_LAT TD9635_LON TD9635_WIND TD9635_PRES TD9635_ROCI NEUMANN_LAT NEUMANN_LON NEUMANN_CLASS NEUMANN_WIND NEUMANN_PRES MLC_LAT MLC_LON MLC_CLASS MLC_WIND MLC_PRES USA_GUST BOM_GUST BOM_GUST_PER REUNION_GUST REUNION_GUST_PER USA_SEAHGT USA_SEARAD_NE USA_SEARAD_SE USA_SEARAD_SW USA_SEARAD_NW STORM_SPEED STORM_DIR
1966040S11135 1966 11 SP EA BETTY 1966-02-08 23:00:00 NR -11.0000 135.200 main 130 116 __________O___ -1 -11.0000 135.200 1 9 245
1966040S11135 1966 11 SP EA BETTY 1966-02-09 00:00:00 TS -11.0651 135.060 1004 bom main 116 78 O_____O__OP___ jtwc_sh SH221966 -11.1000 135.100 -1 -11.0000 135.000 1004 -11.0000 135.000 TC 20 1004 -11.0953 135.080 1 10 236
1966040S11135 1966 11 SI WA BETTY 1966-02-09 03:00:00 TS -11.3748 134.625 main 78 35 P_____P__PP___ SH221966 -11.4626 134.753 -1 -11.2755 134.426 1004 -11.2755 134.426 TC 20 1004 -11.3901 134.719 1 10 233
1966040S11135 1966 11 SI WA BETTY 1966-02-09 06:00:00 TS -11.6668 134.241 1004 bom main 33 11 O_____O__OP___ jtwc_sh SH221966 -11.8000 134.400 -1 -11.5000 134.000 1004 -11.5000 134.000 TC 20 1004 -11.7171 134.365 1 9 230
1966040S11135 1966 11 SI WA BETTY 1966-02-09 09:00:00 TS -11.9349 133.936 main 10 0 P_____P__PP___ SH221966 -12.1125 134.042 -1 -11.6745 133.787 1003 -11.6745 133.787 TC 22 1003 -12.1007 134.021 1 8 225
1966040S11135 1966 11 SI WA BETTY 1966-02-09 11:00:00 TS -12.1656 133.735 main 0 0 P_____P__PO___ SH221966 -12.3548 133.811 -1 -11.8593 133.627 1003 -11.8593 133.627 TC 24 1003 -12.4000 133.800 1 10 219
1966040S11135 1966 11 SI WA BETTY 1966-02-09 12:00:00 TS -12.3130 133.618 1003 bom main 0 0 O_____O__OP___ jtwc_sh SH221966 -12.5000 133.700 -1 -12.0000 133.500 1003 -12.0000 133.500 TC 25 1003 -12.5649 133.692 1 15 215
1966040S11135 1966 11 SI WA BETTY 1966-02-09 15:00:00 TS -12.9776 133.143 main 0 0 P_____P__PP___ SH221966 -13.1074 133.393 -1 -12.7882 132.774 1002 -12.7882 132.774 TC 25 1002 -13.0968 133.379 1 16 216
1966040S11135 1966 11 SI WA BETTY 1966-02-09 18:00:00 TS -13.6053 132.656 1002 bom main 0 0 O_____O__OP___ jtwc_sh SH221966 -13.7000 133.100 -1 -13.5000 132.000 1002 -13.5000 132.000 TC 25 1002 -13.6264 133.080 1 12 222
1966040S11135 1966 11 SI WA BETTY 1966-02-09 21:00:00 TS -13.8966 132.291 main 0 0 P_____P__PP___ SH221966 -14.0900 132.792 -1 -13.6121 131.539 1002 -13.6121 131.539 TC 25 1002 -14.0786 132.790 1 8 236
1966040S11135 1966 11 SI WA BETTY 1966-02-09 23:00:00 TS -13.9757 132.081 main 0 0 P_____P__PO___ SH221966 -14.2500 132.594 -1 -13.5392 131.309 1002 -13.5392 131.309 TC 25 1002 -14.3000 132.600 1 6 252
1966040S11135 1966 11 SI WA BETTY 1966-02-10 00:00:00 TS -13.9922 131.981 1002 bom main 0 0 O_____O__OP___ jtwc_sh SH221966 -14.3000 132.500 -1 -13.5000 131.200 1002 -13.5000 131.200 TC 25 1002 -14.3612 132.505 1 6 263
1966040S11135 1966 11 SI WA BETTY 1966-02-10 03:00:00 TS -14.0258 131.661 main 0 0 P_____P__PP___ SH221966 -14.3449 132.250 -1 -13.5001 130.790 1001 -13.5001 130.790 TC 27 1001 -14.4391 132.224 1 6 269
1966040S11135 1966 11 SI WA BETTY 1966-02-10 06:00:00 TS -14.0019 131.390 1000 bom main 0 0 O_____O__OP___ jtwc_sh SH221966 -14.3000 132.000 -1 -13.5000 130.500 1000 -13.5000 130.500 TC 30 1000 -14.4096 131.951 1 4 275
1966040S11135 1966 11 SI WA BETTY 1966-02-10 09:00:00 TS -13.9846 131.210 main 0 0 P_____P__PP___ SH221966 -14.2925 131.700 -1 -13.4999 130.485 1000 -13.4999 130.485 TC 30 1000 -14.3383 131.680 1 3 275
1966040S11135 1966 11 SI WA BETTY 1966-02-10 11:00:00 TS -13.9777 131.103 main 0 0 P_____P__PO___ SH221966 -14.2943 131.497 -1 -13.4999 130.510 1000 -13.4999 130.510 TC 30 1000 -14.3000 131.500 1 4 282
1966040S11135 1966 11 SI WA BETTY 1966-02-10 12:00:00 TS -13.9423 131.002 1000 bom main 0 0 O_____O__OP___ jtwc_sh SH221966 -14.3000 131.400 -1 -13.5000 130.500 1000 -13.5000 130.500 TC 30 1000 -14.2904 131.410 1 6 279
1966040S11135 1966 11 SI WA BETTY 1966-02-10 15:00:00 TS -13.9144 130.711 main 0 0 P_____P__PP___ SH221966 -14.4170 131.218 -1 -13.5172 130.282 999 -13.5000 130.288 TC 32 999 -14.3002 131.136 1 7 279
1966040S11135 1966 11 SI WA BETTY 1966-02-10 18:00:00 TS -13.8358 130.337 998 bom main 0 0 O_____O__OP___ jtwc_sh SH221966 -14.4000 130.900 -1 -13.5000 130.000 998 -13.5000 130.000 TC 35 998 -14.3550 130.861 1 8 292
1966040S11135 1966 11 SI WA BETTY 1966-02-10 21:00:00 TS -13.6062 129.926 main 0 0 P_____P__PP___ SH221966 -13.9284 130.133 -1 -13.3416 129.779 998 -13.4550 129.742 TC 35 998 -14.4377 130.585 1 9 298
1966040S11135 1966 11 SI WA BETTY 1966-02-10 23:00:00 TS -13.4931 129.676 main 10 10 P_____P__PO___ SH221966 -13.6024 129.607 -1 -13.2919 129.636 998 -13.4657 129.578 TC 35 998 -14.5000 130.400 1 10 300
1966040S11135 1966 11 SI WA BETTY 1966-02-10 23:30:00 TS -13.3987 129.549 998 bom main 34 34 P_____O__P____ SH221966 -13.5439 129.497 -1 -13.3000 129.600 998 -13.4799 129.538 TC 35 998 1 12 283
1966040S11135 1966 11 SI WA BETTY 1966-02-11 00:00:00 TS -13.4485 129.479 main 34 32 O_____P__O____ jtwc_sh SH231966 -13.5000 129.400 -1 -13.3568 129.528 997 -13.5000 129.500 TC 35 998 1 8 222
1966040S11135 1966 11 SI WA BETTY 1966-02-11 03:00:00 TS -13.7527 129.219 main 54 46 P_____P__P____ SH231966 -13.6021 129.168 -1 -13.8701 129.082 996 -13.7700 129.270 TC 37 996 1 6 214
1966040S11135 1966 11 SI WA BETTY 1966-02-11 06:00:00 TS -13.9731 129.123 995 bom main 46 46 O_____O__O__O_ jtwc_sh SH231966 -13.9000 129.100 -1 -14.1000 129.100 995 -14.1000 129.100 TC 40 995 1 -13.8000 129.600 TC 40 995 4 198
1966040S11135 1966 11 SI WA BETTY 1966-02-11 07:00:00 TS -14.0030 129.133 995 bom main 46 39 P_____O__P__P_ SH231966 -13.9667 129.036 -1 -14.0000 129.300 995 -14.1807 129.064 TC 40 995 1 -13.9275 129.537 TC 40 994 4 190
1966040S11135 1966 11 SI WA BETTY 1966-02-11 08:30:00 TS -14.1471 129.081 993 bom main 39 34 P_____O__P__P_ SH231966 -14.0667 128.935 -1 -14.3000 129.300 993 4 -14.2892 129.028 TC 40 995 1 -14.1147 129.440 TC 40 994 6 198
1966040S11135 1966 11 SI WA BETTY 1966-02-11 09:00:00 TS -14.1875 129.070 main 34 34 P_____P__P__P_ SH231966 -14.1000 128.900 -1 -14.3576 129.284 993 -14.3225 129.020 TC 40 995 1 -14.1750 129.408 TC 40 994 5 215
1966040S11135 1966 11 SI WA BETTY 1966-02-11 11:00:00 TS -14.3256 128.954 main 43 43 P_____P__P__P_ SH231966 -14.2333 128.764 -1 -14.4426 129.124 994 -14.4443 129.003 TC 40 995 -14.4003 129.272 TC 40 993 5 220
1966040S11135 1966 11 SI WA BETTY 1966-02-11 12:00:00 TS -14.3940 128.891 995 bom main 53 44 O_____O__O__O_ jtwc_sh SH231966 -14.3000 128.700 -1 -14.5000 129.000 995 -14.5000 129.000 TC 40 995 -14.5000 129.200 TC 40 993 6 220
1966040S11135 1966 11 SI WA BETTY 1966-02-11 14:00:00 TS -14.5530 128.754 995 bom main 33 33 P_____O__P__P_ SH231966 -14.4333 128.603 -1 -14.8000 128.700 995 -14.6049 128.998 TC 40 995 -14.6679 129.047 TC 40 993 6 219
1966040S11135 1966 11 SI WA BETTY 1966-02-11 15:00:00 TS -14.6131 128.706 main 33 22 P_____P__P__P_ SH231966 -14.4999 128.557 -1 -14.8520 128.728 995 -14.6550 128.998 TC 40 995 -14.7375 128.965 TC 40 994 4 216
1966040S11135 1966 11 SI WA BETTY 1966-02-11 18:00:00 TS -14.7524 128.599 995 bom main 11 10 O_____O__O__O_ jtwc_sh SH231966 -14.7000 128.400 -1 -14.8000 129.000 995 -14.8000 129.000 TC 40 995 -14.9000 128.700 TC 40 995 5 236
1966040S11135 1966 11 SI WA BETTY 1966-02-11 21:00:00 TS -14.9132 128.255 main 15 10 P_____P_____P_ SH231966 -14.9000 128.180 -1 -14.9261 128.318 995 TC -14.9849 128.422 TC 40 995 7 243
1966040S11135 1966 11 SI WA BETTY 1966-02-11 22:00:00 TS -14.9745 128.140 995 bom main 0 0 P_____O_____P_ SH231966 -14.9666 128.093 -1 -15.0000 128.100 995 TC -15.0125 128.321 TC 40 995 7 238
1966040S11135 1966 11 SI WA BETTY 1966-02-11 23:00:00 TS -15.0408 128.043 main 0 0 P_____P_____P_ SH231966 -15.0333 128.000 -1 -15.0885 128.000 995 TC -15.0490 128.214 TC 40 995 7 232
1966040S11135 1966 11 SI WA BETTY 1966-02-12 00:00:00 TS -15.1162 127.953 main 0 0 O_____P_____O_ jtwc_sh SH231966 -15.1000 127.900 -1 -15.1911 127.943 995 -15.1000 128.100 TC 40 995 7 229
1966040S11135 1966 11 SI WA BETTY 1966-02-12 01:00:00 TS -15.1978 127.858 995 bom main 0 0 P_____O_____P_ SH231966 -15.1614 127.800 -1 -15.3000 127.900 995 -15.1771 127.981 TC 39 995 8 230
1966040S11135 1966 11 SI WA BETTY 1966-02-12 03:00:00 TS -15.3667 127.638 main 0 0 P_____P_____P_ SH231966 -15.2849 127.580 -1 -15.5159 127.781 -15.3700 127.723 TC 37 995 9 233
1966040S11135 1966 11 SI WA BETTY 1966-02-12 06:00:00 TS -15.6386 127.252 main 0 0 O_____P_____O_ jtwc_sh SH231966 -15.5000 127.200 -1 -15.8292 127.504 -15.7000 127.300 TC 35 995 10 234
1966040S11135 1966 11 SI WA BETTY 1966-02-12 09:00:00 TS -15.9261 126.826 main 0 0 P_____P_____P_ SH231966 -15.7774 126.780 -1 -16.1310 127.124 -16.0074 126.865 TC 32 995 10 235
1966040S11135 1966 11 SI WA BETTY 1966-02-12 11:00:00 TS -16.1288 126.513 main 0 0 P_____P_____P_ SH231966 -15.9890 126.467 -1 -16.3265 126.820 -16.2056 126.558 TC 30 995 11 235
1966040S11135 1966 11 SI WA BETTY 1966-02-12 12:00:00 TS -16.2443 126.353 main 0 0 O_____P_____O_ jtwc_sh SH231966 -16.1000 126.300 -1 -16.4226 126.655 -16.3000 126.400 TC 30 995 12 236
1966040S11135 1966 11 SI WA BETTY 1966-02-12 15:00:00 TS -16.5654 125.835 main 0 0 P_____P_____P_ SH231966 -16.4453 125.765 -1 -16.7052 126.115 -16.5499 125.907 TC 30 995 12 237
1966040S11135 1966 11 SI WA BETTY 1966-02-12 18:00:00 TS -16.8884 125.298 main 0 0 O_____P_____O_ jtwc_sh SH231966 -16.8000 125.200 -1 -16.9802 125.518 -16.8000 125.400 TC 30 995 12 238
1966040S11135 1966 11 SI WA BETTY 1966-02-12 21:00:00 TS -17.2109 124.764 main 0 0 ______P_____P_ SH231966 -1 -17.2489 124.882 -17.0877 124.898 TC 27 995 12 239
1966040S11135 1966 11 SI WA BETTY 1966-02-12 23:00:00 TS -17.4096 124.398 main 0 0 ______P_____P_ SH231966 -1 -17.4253 124.444 -17.2948 124.566 TC 25 995 11 241
1966040S11135 1966 11 SI WA BETTY 1966-02-13 00:00:00 TS -17.4814 124.261 main 0 0 ______P_____O_ -1 -17.5128 124.222 -17.4000 124.400 TC 25 995 13 243
1966040S11135 1966 11 SI WA BETTY 1966-02-13 01:00:00 NR -17.6000 124.000 996 bom main 0 ______O_______ -1 -17.6000 124.000 996 TC 17 245

Digital Typhoon Data and Search

About IBTrACS Database

This database is a web-friendly format of International Best Track Archive for Climate Stewardship (IBTrACS), a global best track data archive curated by NOAA dating back to 1842.

Updated: 2021-10-21